Time;durP1;ratioP1;P1;durP2;ratioP2;P2;SDS_P1;SDS_P2;PMS_P1;PMS_P2;Temp;Humidity;BMP_temperature;BMP_pressure;BME280_temperature;BME280_humidity;BME280_pressure;Samples;Min_cycle;Max_cycle;Signal;HPM_P1;HPM_P2
2024/02/11 00:02:19;;;;;;;1.20;0.85;;;10.80;71.10;;;6.01;100.00;92969.84;4944396;28;20038;-52
2024/02/11 00:04:45;;;;;;;1.10;0.80;;;10.70;71.20;;;5.89;100.00;92972.22;4940425;28;20037;-50
2024/02/11 00:07:11;;;;;;;1.27;0.93;;;10.70;71.40;;;5.90;100.00;92987.78;4947575;28;20034;-52
2024/02/11 00:09:37;;;;;;;2.58;0.70;;;10.60;71.50;;;5.78;100.00;92984.88;4947619;28;20046;-49
2024/02/11 00:12:04;;;;;;;0.60;0.60;;;10.50;71.60;;;5.69;100.00;92987.44;4940746;28;20027;-48
2024/02/11 00:14:30;;;;;;;0.65;0.60;;;10.50;71.70;;;5.67;100.00;92986.97;4944864;28;20027;-52
2024/02/11 00:16:59;;;;;;;0.50;0.50;;;10.40;71.80;;;5.57;100.00;92990.56;4938141;28;20034;-51
2024/02/11 00:19:26;;;;;;;0.70;0.55;;;10.30;71.80;;;5.46;100.00;92991.09;4942333;28;20027;-50
2024/02/11 00:21:52;;;;;;;0.77;0.60;;;10.30;71.90;;;5.48;100.00;93002.13;4943374;28;20031;-54
2024/02/11 00:24:19;;;;;;;0.50;0.50;;;10.20;72.00;;;5.38;100.00;93004.97;4946311;28;20474;-54
2024/02/11 00:26:46;;;;;;;1.80;0.95;;;10.10;72.00;;;5.36;100.00;93005.28;4947202;28;20030;-49
2024/02/11 00:29:11;;;;;;;1.30;0.75;;;10.10;72.10;;;5.31;100.00;93013.28;4937717;28;20058;-48
2024/02/11 00:31:38;;;;;;;0.30;0.30;;;10.00;72.10;;;5.19;100.00;93007.72;4944041;28;20521;-49
2024/02/11 00:34:05;;;;;;;0.40;0.40;;;10.00;72.20;;;5.00;100.00;93007.81;4941686;28;20031;-56
2024/02/11 00:36:33;;;;;;;0.40;0.40;;;9.90;72.10;;;4.87;100.00;93010.13;4944415;28;20034;-51
2024/02/11 00:38:59;;;;;;;0.40;0.40;;;9.80;72.00;;;4.77;100.00;93017.44;4941646;28;20397;-53
2024/02/11 00:41:26;;;;;;;0.30;0.30;;;9.70;71.80;;;4.73;100.00;93022.53;4942667;28;20031;-54
2024/02/11 00:43:52;;;;;;;0.43;0.30;;;9.60;71.70;;;4.63;100.00;93017.41;4947457;28;20030;-57
2024/02/11 00:46:18;;;;;;;0.30;0.30;;;9.60;71.70;;;4.48;100.00;93036.09;4947219;28;20395;-51
2024/02/11 00:48:46;;;;;;;0.30;0.30;;;9.50;71.60;;;4.43;100.00;93036.97;4946710;28;20034;-52
2024/02/11 00:51:13;;;;;;;0.40;0.20;;;9.40;71.50;;;4.48;100.00;93047.47;4938324;28;20031;-53
2024/02/11 00:53:38;;;;;;;0.20;0.20;;;9.30;71.50;;;4.40;100.00;93048.88;4946085;28;20476;-50
2024/02/11 00:56:05;;;;;;;1.20;0.30;;;9.20;71.50;;;4.35;100.00;93048.16;4942911;28;20027;-50
2024/02/11 00:58:33;;;;;;;0.20;0.20;;;9.20;71.60;;;4.29;100.00;93060.63;4943017;28;20504;-54
2024/02/11 01:01:04;;;;;;;0.20;0.20;;;9.10;71.60;;;4.28;100.00;93068.84;4941290;28;20026;-49
2024/02/11 01:03:31;;;;;;;0.30;0.30;;;9.10;71.70;;;4.22;100.00;93075.25;4941636;28;20023;-49
2024/02/11 01:05:57;;;;;;;0.85;0.30;;;9.00;71.60;;;4.15;100.00;93080.88;4938848;28;20035;-52
2024/02/11 01:08:25;;;;;;;0.68;0.20;;;9.00;71.70;;;4.20;100.00;93087.91;4939711;28;20705;-54
2024/02/11 01:10:51;;;;;;;0.30;0.30;;;9.00;71.70;;;4.24;100.00;93092.34;4944889;28;20057;-54
2024/02/11 01:13:17;;;;;;;0.25;0.25;;;8.90;71.80;;;4.25;100.00;93088.63;4945141;28;20515;-51
2024/02/11 01:15:43;;;;;;;0.30;0.30;;;8.90;71.90;;;4.21;100.00;93094.78;4945814;28;20039;-51
2024/02/11 01:18:11;;;;;;;1.08;0.30;;;8.90;71.90;;;4.21;100.00;93103.47;4941175;28;20050;-58
2024/02/11 01:20:37;;;;;;;0.30;0.30;;;8.90;71.90;;;4.26;100.00;93107.84;4947868;28;20319;-54
2024/02/11 01:23:03;;;;;;;0.65;0.45;;;8.90;72.00;;;4.19;100.00;93108.22;4947441;28;20423;-55
2024/02/11 01:25:29;;;;;;;0.60;0.60;;;8.90;72.10;;;4.12;100.00;93111.22;4942491;28;20055;-55
2024/02/11 01:27:55;;;;;;;0.60;0.60;;;8.90;72.10;;;4.13;100.00;93123.31;4948354;28;20057;-54
2024/02/11 01:30:23;;;;;;;0.52;0.52;;;8.80;72.20;;;4.12;100.00;93123.59;4948701;28;20565;-50
2024/02/11 01:32:49;;;;;;;0.82;0.60;;;8.90;72.30;;;4.12;100.00;93123.59;4949682;28;20374;-55
2024/02/11 01:35:14;;;;;;;1.13;0.70;;;8.80;72.30;;;4.08;100.00;93135.78;4944739;28;20026;-51
2024/02/11 01:37:40;;;;;;;1.67;0.68;;;8.80;72.30;;;4.02;100.00;93142.97;4945793;28;20105;-51
2024/02/11 01:40:23;;;;;;;2.38;0.60;;;8.80;72.30;;;3.97;100.00;93144.88;4943936;28;20027;-54
2024/02/11 01:42:49;;;;;;;0.80;0.80;;;8.80;72.30;;;4.01;100.00;93148.50;4949145;28;20028;-50
2024/02/11 01:45:17;;;;;;;1.00;0.90;;;8.80;72.30;;;3.96;100.00;93161.75;4948347;28;20047;-49
2024/02/11 01:47:45;;;;;;;0.80;0.80;;;8.70;72.30;;;3.90;100.00;93153.91;4952056;28;20523;-50
2024/02/11 01:50:18;;;;;;;1.10;1.00;;;8.70;72.20;;;3.91;100.00;93157.31;4943744;28;20061;-58
2024/02/11 01:52:47;;;;;;;1.20;1.10;;;8.70;72.30;;;3.90;100.00;93156.53;4944350;28;20023;-52
2024/02/11 01:55:18;;;;;;;1.20;1.10;;;8.70;72.30;;;3.90;100.00;93168.91;4945701;28;20030;-48
2024/02/11 01:57:46;;;;;;;1.30;1.20;;;8.60;72.30;;;3.85;100.00;93161.84;4948387;28;20120;-49
2024/02/11 02:00:13;;;;;;;1.70;1.60;;;8.60;72.30;;;3.82;100.00;93164.25;4942379;28;20077;-51
2024/02/11 02:02:43;;;;;;;1.50;1.40;;;8.60;72.40;;;3.75;100.00;93166.47;4948610;28;20026;-49
2024/02/11 02:05:09;;;;;;;1.80;1.70;;;8.60;72.40;;;3.72;100.00;93168.56;4944926;28;20054;-48
2024/02/11 02:07:38;;;;;;;2.10;1.90;;;8.60;72.40;;;3.69;100.00;93165.72;4944325;28;20049;-49
2024/02/11 02:10:05;;;;;;;1.80;1.70;;;8.50;72.50;;;3.68;100.00;93169.44;4961365;28;20035;-49
2024/02/11 02:12:31;;;;;;;1.92;1.75;;;8.50;72.50;;;3.63;100.00;93169.47;4944609;28;20023;-49
2024/02/11 02:14:58;;;;;;;1.73;1.63;;;8.40;72.50;;;3.69;100.00;93178.88;4945545;28;20485;-54
2024/02/11 02:17:24;;;;;;;2.25;2.05;;;8.40;72.60;;;3.64;100.00;93176.31;4940619;28;20058;-51
2024/02/11 02:19:51;;;;;;;2.35;2.15;;;8.40;72.60;;;3.66;100.00;93182.06;4946115;28;20115;-54
2024/02/11 02:22:19;;;;;;;2.15;1.95;;;8.40;72.70;;;3.65;100.00;93191.81;4964944;28;20166;-52
2024/02/11 02:24:45;;;;;;;2.20;2.00;;;8.40;72.70;;;3.63;100.00;93191.31;4943708;28;20371;-56
2024/02/11 02:27:14;;;;;;;4.30;2.00;;;8.40;72.80;;;3.56;100.00;93196.13;4946010;28;20038;-53
2024/02/11 02:29:41;;;;;;;2.70;2.40;;;8.40;72.90;;;3.62;100.00;93200.28;4938516;28;20061;-54
2024/02/11 02:32:06;;;;;;;2.42;2.22;;;8.40;72.80;;;3.66;100.00;93203.13;4945320;28;20031;-54
2024/02/11 02:34:32;;;;;;;2.65;2.45;;;8.30;72.90;;;3.66;100.00;93203.91;4944324;28;20030;-54
2024/02/11 02:36:58;;;;;;;2.90;2.60;;;8.40;72.90;;;3.63;100.00;93203.69;4947394;28;20034;-57
2024/02/11 02:39:25;;;;;;;3.17;2.25;;;8.40;73.00;;;3.62;100.00;93199.50;4943798;28;20032;-51
2024/02/11 02:41:51;;;;;;;2.90;2.70;;;8.40;73.00;;;3.61;100.00;93204.00;4945039;28;20065;-54
2024/02/11 02:44:17;;;;;;;3.00;2.70;;;8.30;72.90;;;3.63;100.00;93204.47;4949103;28;20153;-51
2024/02/11 02:46:42;;;;;;;2.50;2.30;;;8.40;73.10;;;3.58;100.00;93204.53;4950389;28;20125;-50
2024/02/11 02:49:08;;;;;;;3.13;2.45;;;8.30;73.00;;;3.57;100.00;93213.47;4944113;28;20030;-51
2024/02/11 02:51:34;;;;;;;2.42;2.22;;;8.30;73.00;;;3.55;100.00;93207.72;4941749;28;20059;-52
2024/02/11 02:54:02;;;;;;;2.42;2.22;;;8.30;73.00;;;3.59;100.00;93218.50;4949865;28;20031;-49
2024/02/11 02:56:28;;;;;;;2.78;2.58;;;8.30;73.00;;;3.56;100.00;93213.78;4940461;28;20493;-49
2024/02/11 02:58:54;;;;;;;2.42;2.00;;;8.30;73.00;;;3.49;100.00;93211.47;4948826;28;20037;-52
2024/02/11 03:01:26;;;;;;;3.22;2.45;;;8.30;73.00;;;3.52;100.00;93213.56;4944973;28;20034;-53
2024/02/11 03:03:52;;;;;;;1.85;1.67;;;8.30;73.10;;;3.51;100.00;93217.25;4947994;28;20039;-54
2024/02/11 03:06:19;;;;;;;2.42;2.22;;;8.20;73.00;;;3.46;100.00;93220.69;4943276;28;20023;-51
2024/02/11 03:08:45;;;;;;;2.75;2.42;;;8.20;73.10;;;3.47;100.00;93219.63;4942557;28;20529;-52
2024/02/11 03:11:10;;;;;;;3.63;2.72;;;8.20;73.10;;;3.45;100.00;93215.72;4941561;28;20026;-49
2024/02/11 03:13:36;;;;;;;2.50;2.30;;;8.20;73.90;;;3.51;100.00;93216.44;4944935;28;20042;-55
2024/02/11 03:16:03;;;;;;;2.63;2.30;;;8.20;73.20;;;3.47;100.00;93230.16;4945052;28;20026;-53
2024/02/11 03:18:29;;;;;;;2.75;2.42;;;8.20;73.20;;;3.48;100.00;93229.13;4943245;28;20033;-52
2024/02/11 03:20:54;;;;;;;2.60;2.28;;;8.20;73.30;;;3.50;100.00;93238.56;4949143;28;20035;-52
2024/02/11 03:23:20;;;;;;;2.63;2.40;;;8.20;73.20;;;3.51;100.00;93233.06;4939487;28;20026;-57
2024/02/11 03:25:46;;;;;;;2.50;2.30;;;8.20;73.30;;;3.51;100.00;93232.25;4942005;28;20477;-48
2024/02/11 03:28:13;;;;;;;3.60;2.40;;;8.20;73.30;;;3.44;100.00;93233.34;4947601;28;20022;-48
2024/02/11 03:30:39;;;;;;;3.08;2.65;;;8.20;73.30;;;3.47;100.00;93232.78;4942188;28;20469;-48
2024/02/11 03:33:04;;;;;;;3.03;2.63;;;8.20;73.30;;;3.46;100.00;93231.22;4943545;28;20034;-50
2024/02/11 03:35:30;;;;;;;2.53;2.33;;;8.20;73.30;;;3.50;100.00;93233.31;4944403;28;20101;-51
2024/02/11 03:37:56;;;;;;;3.60;2.70;;;8.20;73.30;;;3.46;100.00;93233.09;4943743;28;20026;-49
2024/02/11 03:40:24;;;;;;;3.83;2.92;;;8.20;73.30;;;3.50;100.00;93238.56;4945211;28;20026;-52
2024/02/11 03:42:50;;;;;;;2.90;2.60;;;8.20;73.40;;;3.48;100.00;93242.28;4948377;28;20053;-48
2024/02/11 03:45:18;;;;;;;3.47;2.20;;;8.20;73.40;;;3.51;100.00;93254.09;4945808;28;20046;-51
2024/02/11 03:47:45;;;;;;;2.70;2.40;;;8.20;73.50;;;3.51;100.00;93253.28;4949935;28;20113;-53
2024/02/11 03:50:14;;;;;;;2.63;2.42;;;8.20;73.40;;;3.52;100.00;93247.00;4945719;28;20374;-52
2024/02/11 03:52:40;;;;;;;3.72;2.30;;;8.20;73.40;;;3.48;100.00;93249.41;4942468;28;20057;-50
2024/02/11 03:55:08;;;;;;;2.83;2.10;;;8.20;73.40;;;3.47;100.00;93253.84;4942107;28;20031;-51
2024/02/11 03:57:34;;;;;;;2.25;1.98;;;8.20;73.40;;;3.51;100.00;93258.56;4946268;28;20053;-52
2024/02/11 04:00:15;;;;;;;2.40;1.90;;;8.20;73.40;;;3.44;100.00;93264.94;4949530;28;20022;-52
2024/02/11 04:02:42;;;;;;;1.98;1.83;;;8.20;73.40;;;3.47;100.00;93269.63;4945116;28;20133;-51
2024/02/11 04:05:12;;;;;;;2.72;2.05;;;8.20;73.40;;;3.42;100.00;93277.59;4937933;28;20060;-56
2024/02/11 04:07:45;;;;;;;2.00;1.77;;;8.20;73.40;;;3.46;100.00;93268.09;4941630;28;20078;-54
2024/02/11 04:10:23;;;;;;;2.20;1.98;;;8.20;73.50;;;3.43;100.00;93271.25;4945008;28;20035;-55
2024/02/11 04:12:54;;;;;;;2.85;1.80;;;8.20;73.40;;;3.48;100.00;93270.44;4939442;28;20101;-53
2024/02/11 04:15:23;;;;;;;2.42;2.22;;;8.20;73.50;;;3.41;100.00;93269.97;4945205;28;20023;-57
2024/02/11 04:17:53;;;;;;;1.95;1.75;;;8.20;73.50;;;3.43;100.00;93273.91;4939321;28;20391;-50
2024/02/11 04:20:24;;;;;;;2.30;1.77;;;8.20;73.50;;;3.45;100.00;93273.63;4945087;28;20173;-52
2024/02/11 04:23:01;;;;;;;2.97;2.00;;;8.20;73.50;;;3.47;100.00;93274.13;4946137;28;20031;-53
2024/02/11 04:25:33;;;;;;;2.65;1.80;;;8.10;73.50;;;3.43;100.00;93275.75;4939095;28;20601;-53
2024/02/11 04:28:07;;;;;;;2.15;1.88;;;8.20;73.60;;;3.45;100.00;93281.53;4947426;28;20110;-49
2024/02/11 04:30:38;;;;;;;2.67;2.35;;;8.20;73.60;;;3.44;100.00;93275.47;4939654;28;20084;-50
2024/02/11 04:33:06;;;;;;;5.13;2.17;;;8.20;73.50;;;3.48;100.00;93280.97;4943107;28;20388;-49
2024/02/11 04:35:35;;;;;;;2.97;2.08;;;8.10;73.50;;;3.47;100.00;93282.81;4945316;28;20413;-55
2024/02/11 04:38:12;;;;;;;2.38;1.85;;;8.10;73.50;;;3.40;100.00;93281.56;4945604;28;20027;-57
2024/02/11 04:40:41;;;;;;;2.35;1.80;;;8.10;73.50;;;3.39;100.00;93280.78;4946414;28;20117;-56
2024/02/11 04:43:07;;;;;;;3.13;2.20;;;8.10;73.50;;;3.44;100.00;93291.25;4943768;28;20061;-52
2024/02/11 04:45:33;;;;;;;2.83;2.10;;;8.10;73.50;;;3.48;100.00;93280.97;4943948;28;20089;-52
2024/02/11 04:48:04;;;;;;;2.38;2.00;;;8.20;73.60;;;3.44;100.00;93278.09;4953759;28;20027;-52
2024/02/11 04:50:34;;;;;;;3.13;2.10;;;8.10;73.60;;;3.50;100.00;93288.59;4950507;28;20116;-49
2024/02/11 04:53:03;;;;;;;2.95;2.00;;;8.20;73.60;;;3.48;100.00;93281.75;4946721;28;20481;-51
2024/02/11 04:55:40;;;;;;;2.83;1.95;;;8.20;73.60;;;3.45;100.00;93281.53;4947067;28;20389;-51
2024/02/11 04:58:14;;;;;;;2.88;2.17;;;8.20;73.70;;;3.50;100.00;93289.38;4946675;28;20023;-50
2024/02/11 05:00:42;;;;;;;3.50;2.17;;;8.20;73.60;;;3.50;100.00;93286.75;4945722;28;20030;-52
2024/02/11 05:03:10;;;;;;;2.08;1.88;;;8.20;73.60;;;3.49;100.00;93285.19;4947343;28;20027;-50
2024/02/11 05:05:41;;;;;;;3.08;2.00;;;8.20;73.60;;;3.50;100.00;93283.31;4942290;28;20436;-52
2024/02/11 05:08:10;;;;;;;4.20;2.25;;;8.20;73.60;;;3.48;100.00;93284.41;4943315;28;20029;-51
2024/02/11 05:10:40;;;;;;;2.90;2.22;;;8.20;73.50;;;3.47;100.00;93289.91;4948081;28;20031;-51
2024/02/11 05:13:08;;;;;;;3.90;2.10;;;8.20;73.50;;;3.48;100.00;93288.88;4942950;28;20109;-50
2024/02/11 05:15:43;;;;;;;2.80;2.10;;;8.20;73.50;;;3.50;100.00;93291.22;4946589;28;20034;-52
2024/02/11 05:18:12;;;;;;;3.25;2.28;;;8.20;73.50;;;3.46;100.00;93294.41;4941716;28;20118;-54
2024/02/11 05:20:40;;;;;;;3.45;2.20;;;8.20;73.60;;;3.51;100.00;93290.16;4947588;28;20037;-51
2024/02/11 05:23:09;;;;;;;3.13;2.10;;;8.20;73.50;;;3.45;100.00;93302.59;4947628;28;20451;-54
2024/02/11 05:25:38;;;;;;;4.40;2.22;;;8.20;73.50;;;3.49;100.00;93298.34;4941137;28;20425;-53
2024/02/11 05:28:11;;;;;;;5.22;2.30;;;8.20;73.40;;;3.54;100.00;93300.13;4947242;28;20355;-49
2024/02/11 05:30:45;;;;;;;3.00;2.45;;;8.20;73.40;;;3.55;100.00;93299.88;4942352;28;20065;-51
2024/02/11 05:33:13;;;;;;;3.63;2.50;;;8.20;73.50;;;3.56;100.00;93306.69;4946230;28;20452;-51
2024/02/11 05:35:40;;;;;;;3.78;2.17;;;8.20;73.40;;;3.51;100.00;93314.66;4946040;28;20031;-53
2024/02/11 05:38:08;;;;;;;3.10;2.42;;;8.20;73.40;;;3.55;100.00;93312.25;4945115;28;20078;-56
2024/02/11 05:40:45;;;;;;;4.22;2.78;;;8.20;73.40;;;3.52;100.00;93307.53;4940700;28;20026;-54
2024/02/11 05:43:15;;;;;;;3.95;2.50;;;8.20;73.40;;;3.56;100.00;93311.19;4949087;28;20049;-56
2024/02/11 05:45:43;;;;;;;3.47;2.45;;;8.20;73.30;;;3.54;100.00;93308.84;4974353;23;20061;-52
2024/02/11 05:48:12;;;;;;;3.58;2.50;;;8.20;73.30;;;3.50;100.00;93307.00;4968638;28;20037;-51
2024/02/11 05:50:40;;;;;;;2.80;2.15;;;8.20;73.30;;;3.55;100.00;93317.50;4976572;28;20115;-51
2024/02/11 05:53:08;;;;;;;4.32;2.65;;;8.20;73.30;;;3.54;100.00;93315.91;4973989;28;20061;-52
2024/02/11 05:55:35;;;;;;;4.28;2.83;;;8.20;73.20;;;3.56;100.00;93317.22;4981524;28;20113;-51
2024/02/11 05:58:03;;;;;;;3.97;2.95;;;8.30;73.30;;;3.60;100.00;93325.34;4990034;28;20450;-49
2024/02/11 06:00:32;;;;;;;5.20;2.80;;;8.30;73.30;;;3.59;100.00;93324.56;4985602;28;20109;-55
2024/02/11 06:03:00;;;;;;;3.95;2.55;;;8.20;73.20;;;3.60;100.00;93335.88;4988494;28;20107;-52
2024/02/11 06:05:27;;;;;;;3.47;2.70;;;8.30;74.00;;;3.59;100.00;93327.19;4990847;28;20021;-53
2024/02/11 06:07:59;;;;;;;5.50;2.88;;;8.20;73.90;;;3.61;100.00;93330.34;4987034;28;20106;-49
2024/02/11 06:10:30;;;;;;;6.57;3.63;;;8.30;73.10;;;3.60;100.00;93331.41;4989907;28;20404;-52
2024/02/11 06:12:59;;;;;;;5.63;3.10;;;8.30;73.10;;;3.62;100.00;93326.66;4988256;28;20112;-54
2024/02/11 06:15:27;;;;;;;5.22;3.35;;;8.30;73.00;;;3.63;100.00;93337.97;4980840;28;20056;-53
2024/02/11 06:17:55;;;;;;;6.72;2.92;;;8.30;73.00;;;3.64;100.00;93332.44;4987939;28;20112;-50
2024/02/11 06:20:21;;;;;;;3.45;2.67;;;8.30;73.00;;;3.63;100.00;93337.97;4981247;28;20034;-55
2024/02/11 06:22:50;;;;;;;4.88;2.72;;;8.30;73.00;;;3.60;100.00;93339.31;4972708;28;20022;-54
2024/02/11 06:25:22;;;;;;;5.68;3.00;;;8.30;73.00;;;3.60;100.00;93356.94;4984911;28;20026;-53
2024/02/11 06:27:50;;;;;;;3.50;2.63;;;8.30;72.90;;;3.60;100.00;93351.69;4984533;28;20113;-54
2024/02/11 06:30:18;;;;;;;4.63;2.88;;;8.30;73.70;;;3.62;100.00;93362.72;4980572;28;20052;-52
2024/02/11 06:32:50;;;;;;;3.88;2.97;;;8.30;72.90;;;3.66;100.00;93364.53;4981612;28;20025;-55
2024/02/11 06:35:18;;;;;;;4.32;2.80;;;8.30;72.90;;;3.63;100.00;93365.06;4982656;28;20034;-54
2024/02/11 06:37:49;;;;;;;8.07;3.90;;;8.30;72.90;;;3.65;100.00;93370.09;4982294;28;20017;-56
2024/02/11 06:40:25;;;;;;;4.35;2.95;;;8.30;72.80;;;3.66;100.00;93371.66;4998905;28;20607;-53
2024/02/11 06:42:52;;;;;;;5.60;2.92;;;8.40;72.90;;;3.67;100.00;93379.28;4979927;28;20029;-52
2024/02/11 06:45:19;;;;;;;6.53;3.03;;;8.40;72.80;;;3.65;100.00;93375.34;4983840;28;20034;-50
2024/02/11 06:47:46;;;;;;;3.53;2.53;;;8.40;72.80;;;3.66;100.00;93377.69;4983952;28;20049;-52
2024/02/11 06:50:18;;;;;;;5.10;3.15;;;8.40;72.70;;;3.69;100.00;93377.16;4980865;28;20522;-49
2024/02/11 06:52:49;;;;;;;6.47;3.08;;;8.40;72.70;;;3.71;100.00;93390.06;4984648;28;20092;-49
2024/02/11 06:55:18;;;;;;;4.93;2.80;;;8.40;72.70;;;3.70;100.00;93388.50;4979296;28;20033;-55
2024/02/11 06:57:45;;;;;;;5.00;3.13;;;8.40;72.70;;;3.76;100.00;93394.47;4985323;28;20503;-52
2024/02/11 07:00:14;;;;;;;5.15;3.20;;;8.40;72.60;;;3.73;100.00;93393.22;4978201;28;20091;-54
2024/02/11 07:02:40;;;;;;;5.32;3.10;;;8.50;72.70;;;3.68;100.00;93393.22;4978210;28;20026;-50
2024/02/11 07:05:10;;;;;;;5.43;3.13;;;8.50;72.60;;;3.69;100.00;93400.84;4981708;28;20088;-51
2024/02/11 07:07:36;;;;;;;4.68;3.08;;;8.50;72.50;;;3.72;100.00;93399.50;4977078;28;20563;-51
2024/02/11 07:10:04;;;;;;;3.97;2.80;;;8.50;72.50;;;3.74;100.00;93407.94;4982940;28;20034;-50
2024/02/11 07:12:30;;;;;;;4.95;3.03;;;8.50;72.40;;;3.75;100.00;93406.09;4973993;28;20497;-49
2024/02/11 07:14:55;;;;;;;5.82;3.40;;;8.50;72.30;;;3.77;100.00;93407.38;4981181;28;20063;-50
2024/02/11 07:17:21;;;;;;;5.03;3.10;;;8.60;72.40;;;3.81;100.00;93407.63;4980481;28;20034;-50
2024/02/11 07:19:51;;;;;;;3.80;2.80;;;8.60;72.30;;;3.85;100.00;93417.31;4984859;28;20492;-50
2024/02/11 07:22:18;;;;;;;7.28;2.83;;;8.60;72.30;;;3.82;100.00;93412.59;4982238;28;20022;-52
2024/02/11 07:24:44;;;;;;;5.07;2.75;;;8.60;72.10;;;3.87;100.00;93419.69;4987922;28;20056;-50
2024/02/11 07:27:13;;;;;;;4.00;2.67;;;8.70;72.10;;;3.89;100.00;93420.22;4987947;28;20555;-49
2024/02/11 07:29:43;;;;;;;6.45;2.60;;;8.70;72.10;;;3.90;100.00;93419.16;4982326;28;20105;-53
2024/02/11 07:32:10;;;;;;;6.35;2.72;;;8.70;72.00;;;3.89;100.00;93431.53;4978078;28;20650;-50
2024/02/11 07:34:39;;;;;;;5.55;2.85;;;8.80;71.80;;;3.93;100.00;93431.75;4994175;28;20420;-51
2024/02/11 07:37:06;;;;;;;3.85;2.92;;;8.80;71.70;;;3.92;100.00;93428.34;4982600;28;20045;-50
2024/02/11 07:39:32;;;;;;;4.57;3.17;;;8.80;71.60;;;3.94;100.00;93434.09;4981692;28;20113;-53
2024/02/11 07:41:58;;;;;;;4.70;2.78;;;8.80;71.40;;;3.96;100.00;93439.13;4986623;28;20091;-50
2024/02/11 07:44:25;;;;;;;5.85;3.10;;;8.90;71.50;;;4.01;100.00;93431.19;4979627;28;20420;-54
2024/02/11 07:46:53;;;;;;;3.75;2.53;;;8.90;71.50;;;4.01;100.00;93443.53;4990713;28;20553;-49
2024/02/11 07:49:23;;;;;;;3.90;2.80;;;8.90;71.30;;;4.05;100.00;93439.31;4984559;28;20083;-50
2024/02/11 07:51:50;;;;;;;5.28;2.50;;;9.00;71.20;;;4.03;100.00;93444.84;4983012;28;20112;-50
2024/02/11 07:54:23;;;;;;;4.63;2.55;;;9.00;71.20;;;4.10;100.00;93450.59;4984360;28;20022;-57
2024/02/11 07:56:52;;;;;;;5.78;2.58;;;9.00;71.10;;;4.13;100.00;93459.78;4984597;28;20480;-51
2024/02/11 07:59:18;;;;;;;6.15;2.95;;;9.00;71.00;;;4.16;100.00;93459.25;4985483;28;20044;-52
2024/02/11 08:01:44;;;;;;;4.10;2.88;;;9.10;71.10;;;4.12;100.00;93461.66;4981196;28;20030;-50
2024/02/11 08:04:11;;;;;;;4.50;2.90;;;9.10;71.00;;;4.14;100.00;93462.16;4988734;28;20048;-50
2024/02/11 08:06:36;;;;;;;5.38;3.05;;;9.10;70.90;;;4.17;100.00;93466.09;4983016;28;20041;-51
2024/02/11 08:09:03;;;;;;;5.13;3.25;;;9.10;70.80;;;4.24;100.00;93471.84;4984942;28;20022;-51
2024/02/11 08:11:33;;;;;;;4.43;3.13;;;9.20;70.80;;;4.27;100.00;93463.38;4983397;28;20037;-50
2024/02/11 08:13:58;;;;;;;3.63;2.70;;;9.30;70.80;;;4.27;100.00;93468.66;4983682;28;20373;-50
2024/02/11 08:16:25;;;;;;;4.15;3.08;;;9.30;70.70;;;4.34;100.00;93474.38;4978829;28;20034;-54
2024/02/11 08:18:56;;;;;;;3.55;2.60;;;9.40;70.60;;;4.37;100.00;93479.09;4983862;28;20401;-50
2024/02/11 08:21:22;;;;;;;4.10;2.78;;;9.50;70.40;;;4.47;100.00;93477.44;4985713;28;20026;-51
2024/02/11 08:23:48;;;;;;;3.40;2.50;;;9.50;70.40;;;4.53;100.00;93473.69;4996788;28;20021;-53
2024/02/11 08:26:15;;;;;;;4.32;2.78;;;9.60;70.30;;;4.56;100.00;93476.56;4991735;28;20402;-50
2024/02/11 08:28:41;;;;;;;4.40;2.40;;;9.70;70.20;;;4.60;100.00;93479.44;4991887;28;20034;-51
2024/02/11 08:31:07;;;;;;;4.00;2.78;;;9.70;70.10;;;4.63;100.00;93474.38;4988966;28;20196;-49
2024/02/11 08:33:33;;;;;;;3.50;2.75;;;9.80;69.90;;;4.60;100.00;93476.78;4984442;28;20026;-54
2024/02/11 08:35:59;;;;;;;3.15;2.60;;;9.80;69.70;;;4.60;100.00;93482.84;4987171;28;20117;-54
2024/02/11 08:38:26;;;;;;;4.85;2.40;;;9.90;69.50;;;4.73;100.00;93475.34;4989142;28;20025;-57
2024/02/11 08:40:51;;;;;;;2.90;2.22;;;10.00;69.30;;;4.69;100.00;93483.03;4987215;28;20826;-53
2024/02/11 08:43:19;;;;;;;3.65;2.47;;;10.10;69.10;;;4.79;100.00;93493.47;4988295;28;20113;-54
2024/02/11 08:45:45;;;;;;;3.85;2.22;;;10.10;69.00;;;4.87;100.00;93492.09;4985286;28;20141;-52
2024/02/11 08:48:11;;;;;;;5.97;2.75;;;10.20;68.70;;;4.87;100.00;93492.88;4988956;28;20052;-51
2024/02/11 08:50:38;;;;;;;3.25;2.33;;;10.30;68.40;;;4.96;100.00;93495.72;4986368;28;20045;-53
2024/02/11 08:53:05;;;;;;;4.03;2.80;;;10.40;68.30;;;5.03;100.00;93506.72;4982092;28;20048;-49
2024/02/11 08:55:30;;;;;;;3.88;2.30;;;10.40;68.10;;;5.05;100.00;93507.22;4985983;28;20022;-49
2024/02/11 08:57:59;;;;;;;4.03;2.42;;;10.50;67.80;;;5.15;100.00;93511.59;4986726;28;20021;-51
2024/02/11 09:00:26;;;;;;;4.88;2.38;;;10.50;67.70;;;5.19;100.00;93509.97;4984673;28;20061;-55
2024/02/11 09:02:53;;;;;;;5.18;2.72;;;10.60;67.60;;;5.22;100.00;93514.69;4989967;28;20072;-50
2024/02/11 09:05:20;;;;;;;2.90;2.10;;;10.60;67.40;;;5.20;100.00;93516.84;4980648;28;20456;-51
2024/02/11 09:07:46;;;;;;;3.47;2.55;;;10.70;67.20;;;5.19;100.00;93517.88;4987306;28;20034;-51
2024/02/11 09:10:15;;;;;;;3.92;2.45;;;10.70;66.70;;;5.30;100.00;93522.00;4980199;28;20050;-54
2024/02/11 09:12:42;;;;;;;5.30;2.53;;;10.70;66.70;;;5.30;100.00;93524.63;4984974;28;20025;-52
2024/02/11 09:15:09;;;;;;;4.43;2.65;;;10.70;66.60;;;5.30;100.00;93521.22;4976846;28;20022;-53
2024/02/11 09:17:42;;;;;;;2.95;2.30;;;10.70;66.40;;;5.36;100.00;93525.38;4982453;28;20030;-53
2024/02/11 09:20:13;;;;;;;2.65;2.22;;;10.70;66.40;;;5.40;100.00;93530.88;4986372;28;20084;-54
2024/02/11 09:22:39;;;;;;;2.75;2.35;;;10.70;66.50;;;5.39;100.00;93527.44;4979677;28;20038;-53
2024/02/11 09:25:07;;;;;;;3.25;2.42;;;10.70;66.40;;;5.38;100.00;93533.78;4989331;28;20042;-53
2024/02/11 09:27:33;;;;;;;4.05;2.50;;;10.70;66.30;;;5.37;100.00;93528.78;4990127;28;20482;-54
2024/02/11 09:29:59;;;;;;;4.35;2.50;;;10.70;66.20;;;5.38;100.00;93541.69;4983277;28;20021;-52
2024/02/11 09:32:25;;;;;;;3.60;2.40;;;10.70;66.10;;;5.45;100.00;93538.72;4984505;28;20026;-54
2024/02/11 09:34:51;;;;;;;3.17;2.15;;;10.80;66.20;;;5.33;100.00;93541.78;4987575;28;20026;-53
2024/02/11 09:37:17;;;;;;;3.58;2.28;;;10.80;65.90;;;5.38;100.00;93546.19;4986289;28;20391;-55
2024/02/11 09:39:43;;;;;;;2.55;2.15;;;10.80;65.60;;;5.43;100.00;93549.56;4987943;28;20114;-54
2024/02/11 09:42:16;;;;;;;2.65;2.22;;;10.90;65.60;;;5.47;100.00;93547.16;4990436;28;20471;-53
2024/02/11 09:44:49;;;;;;;4.53;2.33;;;10.90;65.40;;;5.54;100.00;93553.66;4987176;28;20025;-56
2024/02/11 09:47:17;;;;;;;3.53;2.75;;;10.90;65.30;;;5.56;100.00;93556.03;4986238;28;20038;-55
2024/02/11 09:49:51;;;;;;;4.45;2.40;;;11.00;65.40;;;5.62;100.00;93556.75;4986456;28;20096;-56
2024/02/11 09:52:20;;;;;;;5.45;2.60;;;11.10;65.10;;;5.67;100.00;93556.69;4980833;28;20491;-53
2024/02/11 09:54:47;;;;;;;3.95;2.25;;;11.20;64.90;;;5.74;100.00;93559.78;4978462;28;20033;-52
2024/02/11 09:57:13;;;;;;;3.38;2.30;;;11.30;64.90;;;5.72;99.37;93557.41;4981121;28;20407;-51
2024/02/11 09:59:39;;;;;;;4.97;2.40;;;11.30;64.80;;;5.79;99.78;93560.50;5003976;28;20036;-51
2024/02/11 10:02:18;;;;;;;3.80;2.40;;;11.40;64.60;;;5.81;99.63;93562.88;4989200;28;20034;-49
2024/02/11 10:04:46;;;;;;;3.53;2.38;;;11.40;64.60;;;5.82;99.05;93563.66;4989122;28;20025;-52
2024/02/11 10:07:23;;;;;;;3.20;2.20;;;11.40;64.40;;;5.91;99.31;93569.88;4970290;28;20022;-52
2024/02/11 10:09:50;;;;;;;3.45;2.65;;;11.40;64.20;;;5.90;98.43;93565.66;4982393;28;20049;-50
2024/02/11 10:12:21;;;;;;;3.60;2.72;;;11.50;64.40;;;5.74;97.60;93565.84;4983337;28;20172;-54
2024/02/11 10:14:57;;;;;;;4.53;2.42;;;11.50;64.00;;;5.80;98.30;93566.59;4983097;28;20083;-52
2024/02/11 10:17:25;;;;;;;3.88;2.45;;;11.50;63.60;;;5.86;99.17;93570.75;4986466;28;20457;-52
2024/02/11 10:19:53;;;;;;;3.65;2.67;;;11.50;63.70;;;5.93;98.70;93575.72;4993613;28;20021;-52
2024/02/11 10:22:21;;;;;;;3.75;2.70;;;11.60;63.50;;;6.12;99.43;93568.56;4988175;28;20030;-50
2024/02/11 10:24:49;;;;;;;5.05;2.95;;;11.70;63.60;;;6.11;97.13;93564.38;4975659;28;20021;-49
2024/02/11 10:27:17;;;;;;;3.50;2.60;;;11.90;63.20;;;6.18;95.96;93566.66;4985150;28;20030;-52
2024/02/11 10:29:47;;;;;;;5.32;2.22;;;12.10;62.80;;;6.32;97.17;93564.06;4994226;28;20392;-53